sensor_id;sensor_type;location;lat;lon;timestamp;P1;durP1;ratioP1;P2;durP2;ratioP2
75220;SDS011;63802;53.232;6.570;2022-12-20T00:01:07;9.60;;;4.20;;
75220;SDS011;63802;53.232;6.570;2022-12-20T00:03:39;13.48;;;4.80;;
75220;SDS011;63802;53.232;6.570;2022-12-20T00:06:05;9.48;;;4.28;;
75220;SDS011;63802;53.232;6.570;2022-12-20T00:08:31;11.38;;;4.63;;
75220;SDS011;63802;53.232;6.570;2022-12-20T00:10:59;9.27;;;4.28;;
75220;SDS011;63802;53.232;6.570;2022-12-20T00:13:25;10.95;;;4.13;;
75220;SDS011;63802;53.232;6.570;2022-12-20T00:16:02;8.38;;;4.68;;
75220;SDS011;63802;53.232;6.570;2022-12-20T00:18:31;11.27;;;4.50;;
75220;SDS011;63802;53.232;6.570;2022-12-20T00:21:00;8.43;;;4.15;;
75220;SDS011;63802;53.232;6.570;2022-12-20T00:23:27;9.55;;;4.53;;
75220;SDS011;63802;53.232;6.570;2022-12-20T00:25:59;7.97;;;3.80;;
75220;SDS011;63802;53.232;6.570;2022-12-20T00:28:25;7.90;;;4.22;;
75220;SDS011;63802;53.232;6.570;2022-12-20T00:30:54;8.48;;;4.20;;
75220;SDS011;63802;53.232;6.570;2022-12-20T00:33:20;8.95;;;4.60;;
75220;SDS011;63802;53.232;6.570;2022-12-20T00:35:45;6.57;;;3.92;;
75220;SDS011;63802;53.232;6.570;2022-12-20T00:38:11;8.07;;;3.65;;
75220;SDS011;63802;53.232;6.570;2022-12-20T00:40:36;7.47;;;3.65;;
75220;SDS011;63802;53.232;6.570;2022-12-20T00:43:02;8.10;;;3.97;;
75220;SDS011;63802;53.232;6.570;2022-12-20T00:45:28;9.30;;;4.40;;
75220;SDS011;63802;53.232;6.570;2022-12-20T00:47:53;7.93;;;3.85;;
75220;SDS011;63802;53.232;6.570;2022-12-20T00:50:19;7.63;;;3.95;;
75220;SDS011;63802;53.232;6.570;2022-12-20T00:52:44;8.30;;;3.80;;
75220;SDS011;63802;53.232;6.570;2022-12-20T00:55:09;7.28;;;3.63;;
75220;SDS011;63802;53.232;6.570;2022-12-20T00:57:35;9.15;;;4.15;;
75220;SDS011;63802;53.232;6.570;2022-12-20T01:00:00;8.95;;;4.00;;
75220;SDS011;63802;53.232;6.570;2022-12-20T01:02:26;6.15;;;3.70;;
75220;SDS011;63802;53.232;6.570;2022-12-20T01:04:51;9.90;;;4.25;;
75220;SDS011;63802;53.232;6.570;2022-12-20T01:07:17;9.95;;;3.70;;
75220;SDS011;63802;53.232;6.570;2022-12-20T01:09:43;8.65;;;3.50;;
75220;SDS011;63802;53.232;6.570;2022-12-20T01:12:09;6.20;;;3.55;;
75220;SDS011;63802;53.232;6.570;2022-12-20T01:14:35;8.40;;;3.90;;
75220;SDS011;63802;53.232;6.570;2022-12-20T01:17:00;9.13;;;3.83;;
75220;SDS011;63802;53.232;6.570;2022-12-20T01:19:26;7.32;;;3.33;;
75220;SDS011;63802;53.232;6.570;2022-12-20T01:21:52;6.05;;;3.25;;
75220;SDS011;63802;53.232;6.570;2022-12-20T01:24:17;9.20;;;3.40;;
75220;SDS011;63802;53.232;6.570;2022-12-20T01:26:44;6.88;;;3.13;;
75220;SDS011;63802;53.232;6.570;2022-12-20T01:29:11;12.88;;;4.22;;
75220;SDS011;63802;53.232;6.570;2022-12-20T01:31:39;7.35;;;3.45;;
75220;SDS011;63802;53.232;6.570;2022-12-20T01:34:05;6.30;;;3.35;;
75220;SDS011;63802;53.232;6.570;2022-12-20T01:36:32;9.38;;;3.78;;
75220;SDS011;63802;53.232;6.570;2022-12-20T01:39:04;6.20;;;3.45;;
75220;SDS011;63802;53.232;6.570;2022-12-20T01:41:36;10.23;;;3.97;;
75220;SDS011;63802;53.232;6.570;2022-12-20T01:44:03;9.90;;;4.10;;
75220;SDS011;63802;53.232;6.570;2022-12-20T01:46:31;8.75;;;3.40;;
75220;SDS011;63802;53.232;6.570;2022-12-20T01:49:00;5.25;;;3.47;;
75220;SDS011;63802;53.232;6.570;2022-12-20T01:51:31;8.85;;;3.20;;
75220;SDS011;63802;53.232;6.570;2022-12-20T01:54:38;10.50;;;3.42;;
75220;SDS011;63802;53.232;6.570;2022-12-20T01:57:01;7.35;;;3.08;;
75220;SDS011;63802;53.232;6.570;2022-12-20T01:59:30;8.57;;;4.20;;
75220;SDS011;63802;53.232;6.570;2022-12-20T02:02:01;6.93;;;3.38;;
75220;SDS011;63802;53.232;6.570;2022-12-20T02:04:29;6.80;;;3.38;;
75220;SDS011;63802;53.232;6.570;2022-12-20T02:06:54;7.70;;;3.47;;
75220;SDS011;63802;53.232;6.570;2022-12-20T02:09:22;8.90;;;3.97;;
75220;SDS011;63802;53.232;6.570;2022-12-20T02:17:53;9.95;;;3.35;;
75220;SDS011;63802;53.232;6.570;2022-12-20T02:23:58;9.00;;;3.78;;
75220;SDS011;63802;53.232;6.570;2022-12-20T02:32:27;7.22;;;3.83;;
75220;SDS011;63802;53.232;6.570;2022-12-20T02:34:58;5.88;;;3.05;;
75220;SDS011;63802;53.232;6.570;2022-12-20T02:37:24;6.82;;;3.15;;
75220;SDS011;63802;53.232;6.570;2022-12-20T02:39:50;6.00;;;3.25;;
75220;SDS011;63802;53.232;6.570;2022-12-20T02:42:17;8.32;;;3.30;;
75220;SDS011;63802;53.232;6.570;2022-12-20T02:44:50;7.35;;;3.75;;
75220;SDS011;63802;53.232;6.570;2022-12-20T02:50:06;9.10;;;3.33;;
75220;SDS011;63802;53.232;6.570;2022-12-20T02:52:32;6.20;;;3.75;;
75220;SDS011;63802;53.232;6.570;2022-12-20T02:54:59;7.03;;;3.22;;
75220;SDS011;63802;53.232;6.570;2022-12-20T03:00:20;6.18;;;3.13;;
75220;SDS011;63802;53.232;6.570;2022-12-20T03:02:47;7.28;;;3.20;;
75220;SDS011;63802;53.232;6.570;2022-12-20T03:05:34;8.63;;;3.28;;
75220;SDS011;63802;53.232;6.570;2022-12-20T03:08:07;6.57;;;3.30;;
75220;SDS011;63802;53.232;6.570;2022-12-20T03:10:32;10.82;;;3.88;;
75220;SDS011;63802;53.232;6.570;2022-12-20T03:12:58;7.40;;;3.60;;
75220;SDS011;63802;53.232;6.570;2022-12-20T03:15:23;6.50;;;3.47;;
75220;SDS011;63802;53.232;6.570;2022-12-20T03:17:49;8.52;;;3.95;;
75220;SDS011;63802;53.232;6.570;2022-12-20T03:20:15;8.82;;;3.40;;
75220;SDS011;63802;53.232;6.570;2022-12-20T03:22:40;8.73;;;3.55;;
75220;SDS011;63802;53.232;6.570;2022-12-20T03:25:06;10.25;;;4.50;;
75220;SDS011;63802;53.232;6.570;2022-12-20T03:27:32;8.68;;;4.18;;
75220;SDS011;63802;53.232;6.570;2022-12-20T03:29:57;8.30;;;3.80;;
75220;SDS011;63802;53.232;6.570;2022-12-20T03:32:23;8.15;;;4.10;;
75220;SDS011;63802;53.232;6.570;2022-12-20T03:34:48;6.85;;;3.65;;
75220;SDS011;63802;53.232;6.570;2022-12-20T03:37:14;7.38;;;3.20;;
75220;SDS011;63802;53.232;6.570;2022-12-20T03:39:40;8.60;;;3.60;;
75220;SDS011;63802;53.232;6.570;2022-12-20T03:42:06;6.32;;;3.40;;
75220;SDS011;63802;53.232;6.570;2022-12-20T03:44:31;8.10;;;3.92;;
75220;SDS011;63802;53.232;6.570;2022-12-20T03:46:57;7.25;;;3.47;;
75220;SDS011;63802;53.232;6.570;2022-12-20T03:49:22;8.13;;;3.60;;
75220;SDS011;63802;53.232;6.570;2022-12-20T03:51:49;6.20;;;3.35;;
75220;SDS011;63802;53.232;6.570;2022-12-20T03:54:14;9.75;;;3.92;;
75220;SDS011;63802;53.232;6.570;2022-12-20T03:56:39;6.47;;;3.20;;
75220;SDS011;63802;53.232;6.570;2022-12-20T03:59:05;6.15;;;3.53;;
75220;SDS011;63802;53.232;6.570;2022-12-20T04:01:30;8.10;;;3.70;;
75220;SDS011;63802;53.232;6.570;2022-12-20T04:04:00;11.32;;;4.13;;
75220;SDS011;63802;53.232;6.570;2022-12-20T04:06:26;7.80;;;3.97;;
75220;SDS011;63802;53.232;6.570;2022-12-20T04:08:52;7.35;;;3.70;;
75220;SDS011;63802;53.232;6.570;2022-12-20T04:11:18;8.07;;;3.50;;
75220;SDS011;63802;53.232;6.570;2022-12-20T04:13:44;7.63;;;3.38;;
75220;SDS011;63802;53.232;6.570;2022-12-20T04:16:12;8.95;;;3.50;;
75220;SDS011;63802;53.232;6.570;2022-12-20T04:18:39;10.00;;;3.75;;
75220;SDS011;63802;53.232;6.570;2022-12-20T04:21:06;8.05;;;3.60;;
75220;SDS011;63802;53.232;6.570;2022-12-20T04:23:34;9.13;;;3.65;;
75220;SDS011;63802;53.232;6.570;2022-12-20T04:26:00;12.13;;;3.65;;
75220;SDS011;63802;53.232;6.570;2022-12-20T04:28:27;11.85;;;4.35;;
75220;SDS011;63802;53.232;6.570;2022-12-20T04:30:54;7.38;;;3.78;;
75220;SDS011;63802;53.232;6.570;2022-12-20T04:33:19;8.30;;;3.85;;
75220;SDS011;63802;53.232;6.570;2022-12-20T04:35:45;7.40;;;3.50;;
75220;SDS011;63802;53.232;6.570;2022-12-20T04:38:11;6.47;;;3.30;;
75220;SDS011;63802;53.232;6.570;2022-12-20T04:40:36;9.23;;;4.47;;
75220;SDS011;63802;53.232;6.570;2022-12-20T04:43:01;8.85;;;4.00;;
75220;SDS011;63802;53.232;6.570;2022-12-20T04:45:27;7.82;;;3.72;;
75220;SDS011;63802;53.232;6.570;2022-12-20T04:47:52;10.13;;;3.95;;
75220;SDS011;63802;53.232;6.570;2022-12-20T04:50:17;10.00;;;4.20;;
75220;SDS011;63802;53.232;6.570;2022-12-20T04:52:43;9.45;;;4.32;;
75220;SDS011;63802;53.232;6.570;2022-12-20T04:55:28;10.13;;;4.32;;
75220;SDS011;63802;53.232;6.570;2022-12-20T04:57:54;9.85;;;4.28;;
75220;SDS011;63802;53.232;6.570;2022-12-20T05:00:19;7.35;;;4.10;;
75220;SDS011;63802;53.232;6.570;2022-12-20T05:02:45;11.32;;;3.90;;
75220;SDS011;63802;53.232;6.570;2022-12-20T05:05:11;8.13;;;3.50;;
75220;SDS011;63802;53.232;6.570;2022-12-20T05:07:36;12.13;;;3.90;;
75220;SDS011;63802;53.232;6.570;2022-12-20T05:10:02;7.32;;;3.70;;
75220;SDS011;63802;53.232;6.570;2022-12-20T05:12:28;7.78;;;3.78;;
75220;SDS011;63802;53.232;6.570;2022-12-20T05:14:53;7.30;;;3.65;;
75220;SDS011;63802;53.232;6.570;2022-12-20T05:17:19;9.45;;;3.40;;
75220;SDS011;63802;53.232;6.570;2022-12-20T05:19:45;9.85;;;3.90;;
75220;SDS011;63802;53.232;6.570;2022-12-20T05:22:10;9.50;;;4.20;;
75220;SDS011;63802;53.232;6.570;2022-12-20T05:24:54;7.68;;;3.90;;
75220;SDS011;63802;53.232;6.570;2022-12-20T05:27:38;8.63;;;3.42;;
75220;SDS011;63802;53.232;6.570;2022-12-20T05:30:04;8.43;;;4.00;;
75220;SDS011;63802;53.232;6.570;2022-12-20T05:32:30;8.05;;;4.00;;
75220;SDS011;63802;53.232;6.570;2022-12-20T05:34:55;8.25;;;3.88;;
75220;SDS011;63802;53.232;6.570;2022-12-20T05:37:20;7.60;;;3.67;;
75220;SDS011;63802;53.232;6.570;2022-12-20T05:39:46;6.90;;;3.45;;
75220;SDS011;63802;53.232;6.570;2022-12-20T05:42:11;8.57;;;3.80;;
75220;SDS011;63802;53.232;6.570;2022-12-20T05:44:37;8.93;;;3.85;;
75220;SDS011;63802;53.232;6.570;2022-12-20T05:47:02;7.28;;;3.80;;
75220;SDS011;63802;53.232;6.570;2022-12-20T05:49:27;7.60;;;4.03;;
75220;SDS011;63802;53.232;6.570;2022-12-20T05:51:53;9.07;;;3.90;;
75220;SDS011;63802;53.232;6.570;2022-12-20T05:54:18;8.82;;;3.47;;
75220;SDS011;63802;53.232;6.570;2022-12-20T05:56:44;8.60;;;3.85;;
75220;SDS011;63802;53.232;6.570;2022-12-20T05:59:09;6.60;;;3.50;;
75220;SDS011;63802;53.232;6.570;2022-12-20T06:01:35;8.52;;;3.80;;
75220;SDS011;63802;53.232;6.570;2022-12-20T06:04:00;7.32;;;3.05;;
75220;SDS011;63802;53.232;6.570;2022-12-20T06:06:26;5.88;;;3.22;;
75220;SDS011;63802;53.232;6.570;2022-12-20T06:08:51;7.65;;;3.40;;
75220;SDS011;63802;53.232;6.570;2022-12-20T06:11:17;8.82;;;3.38;;
75220;SDS011;63802;53.232;6.570;2022-12-20T06:13:42;7.18;;;3.65;;
75220;SDS011;63802;53.232;6.570;2022-12-20T06:16:08;6.93;;;3.30;;
75220;SDS011;63802;53.232;6.570;2022-12-20T06:18:34;9.13;;;3.67;;
75220;SDS011;63802;53.232;6.570;2022-12-20T06:21:00;8.23;;;3.28;;
75220;SDS011;63802;53.232;6.570;2022-12-20T06:23:26;8.88;;;3.30;;
75220;SDS011;63802;53.232;6.570;2022-12-20T06:25:52;8.48;;;3.55;;
75220;SDS011;63802;53.232;6.570;2022-12-20T06:28:17;4.50;;;2.70;;
75220;SDS011;63802;53.232;6.570;2022-12-20T06:30:52;7.05;;;3.03;;
75220;SDS011;63802;53.232;6.570;2022-12-20T06:33:18;5.90;;;3.20;;
75220;SDS011;63802;53.232;6.570;2022-12-20T06:35:44;5.70;;;2.92;;
75220;SDS011;63802;53.232;6.570;2022-12-20T06:38:09;6.70;;;3.47;;
75220;SDS011;63802;53.232;6.570;2022-12-20T06:40:36;8.05;;;3.17;;
75220;SDS011;63802;53.232;6.570;2022-12-20T06:43:02;6.95;;;3.40;;
75220;SDS011;63802;53.232;6.570;2022-12-20T06:45:27;6.35;;;3.22;;
75220;SDS011;63802;53.232;6.570;2022-12-20T06:47:53;6.28;;;3.22;;
75220;SDS011;63802;53.232;6.570;2022-12-20T06:50:18;5.20;;;3.08;;
75220;SDS011;63802;53.232;6.570;2022-12-20T06:52:44;7.95;;;3.70;;
75220;SDS011;63802;53.232;6.570;2022-12-20T06:55:09;8.45;;;3.45;;
75220;SDS011;63802;53.232;6.570;2022-12-20T06:57:35;7.35;;;3.20;;
75220;SDS011;63802;53.232;6.570;2022-12-20T07:00:00;6.10;;;3.30;;
75220;SDS011;63802;53.232;6.570;2022-12-20T07:02:26;7.47;;;3.35;;
75220;SDS011;63802;53.232;6.570;2022-12-20T07:04:52;9.52;;;3.70;;
75220;SDS011;63802;53.232;6.570;2022-12-20T07:07:17;9.32;;;3.50;;
75220;SDS011;63802;53.232;6.570;2022-12-20T07:09:43;10.05;;;3.78;;
75220;SDS011;63802;53.232;6.570;2022-12-20T07:12:08;7.68;;;3.63;;
75220;SDS011;63802;53.232;6.570;2022-12-20T07:14:34;8.48;;;3.80;;
75220;SDS011;63802;53.232;6.570;2022-12-20T07:17:00;9.32;;;4.30;;
75220;SDS011;63802;53.232;6.570;2022-12-20T07:19:26;10.43;;;4.93;;
75220;SDS011;63802;53.232;6.570;2022-12-20T07:21:51;8.50;;;4.68;;
75220;SDS011;63802;53.232;6.570;2022-12-20T07:24:17;8.27;;;4.70;;
75220;SDS011;63802;53.232;6.570;2022-12-20T07:26:43;8.95;;;4.78;;
75220;SDS011;63802;53.232;6.570;2022-12-20T07:29:09;8.98;;;4.60;;
75220;SDS011;63802;53.232;6.570;2022-12-20T07:31:36;10.35;;;4.88;;
75220;SDS011;63802;53.232;6.570;2022-12-20T07:34:01;9.57;;;4.82;;
75220;SDS011;63802;53.232;6.570;2022-12-20T07:36:27;9.15;;;5.15;;
75220;SDS011;63802;53.232;6.570;2022-12-20T07:38:52;9.85;;;5.90;;
75220;SDS011;63802;53.232;6.570;2022-12-20T07:41:18;10.23;;;5.65;;
75220;SDS011;63802;53.232;6.570;2022-12-20T07:43:43;9.65;;;4.53;;
75220;SDS011;63802;53.232;6.570;2022-12-20T07:46:10;9.55;;;5.05;;
75220;SDS011;63802;53.232;6.570;2022-12-20T07:48:37;11.32;;;5.50;;
75220;SDS011;63802;53.232;6.570;2022-12-20T07:51:07;11.07;;;5.75;;
75220;SDS011;63802;53.232;6.570;2022-12-20T07:53:37;12.38;;;5.20;;
75220;SDS011;63802;53.232;6.570;2022-12-20T07:56:06;12.35;;;5.82;;
75220;SDS011;63802;53.232;6.570;2022-12-20T07:58:33;11.25;;;6.13;;
75220;SDS011;63802;53.232;6.570;2022-12-20T08:01:01;9.30;;;5.20;;
75220;SDS011;63802;53.232;6.570;2022-12-20T08:03:34;9.93;;;5.82;;
75220;SDS011;63802;53.232;6.570;2022-12-20T08:06:03;12.40;;;6.00;;
75220;SDS011;63802;53.232;6.570;2022-12-20T08:08:31;10.90;;;6.10;;
75220;SDS011;63802;53.232;6.570;2022-12-20T08:11:00;11.50;;;6.30;;
75220;SDS011;63802;53.232;6.570;2022-12-20T08:13:28;9.50;;;5.30;;
75220;SDS011;63802;53.232;6.570;2022-12-20T08:15:55;10.95;;;5.20;;
75220;SDS011;63802;53.232;6.570;2022-12-20T08:18:21;9.60;;;5.70;;
75220;SDS011;63802;53.232;6.570;2022-12-20T08:20:46;8.38;;;4.93;;
75220;SDS011;63802;53.232;6.570;2022-12-20T08:23:13;11.95;;;5.50;;
75220;SDS011;63802;53.232;6.570;2022-12-20T08:25:39;10.77;;;5.25;;
75220;SDS011;63802;53.232;6.570;2022-12-20T08:28:05;10.88;;;5.20;;
75220;SDS011;63802;53.232;6.570;2022-12-20T08:30:30;9.60;;;4.95;;
75220;SDS011;63802;53.232;6.570;2022-12-20T08:32:56;11.65;;;4.78;;
75220;SDS011;63802;53.232;6.570;2022-12-20T08:35:21;8.05;;;4.47;;
75220;SDS011;63802;53.232;6.570;2022-12-20T08:37:50;10.10;;;4.35;;
75220;SDS011;63802;53.232;6.570;2022-12-20T08:40:16;8.70;;;4.57;;
75220;SDS011;63802;53.232;6.570;2022-12-20T08:42:43;8.15;;;4.10;;
75220;SDS011;63802;53.232;6.570;2022-12-20T08:45:09;10.07;;;4.03;;
75220;SDS011;63802;53.232;6.570;2022-12-20T08:47:35;7.85;;;4.00;;
75220;SDS011;63802;53.232;6.570;2022-12-20T08:50:00;9.32;;;4.20;;
75220;SDS011;63802;53.232;6.570;2022-12-20T08:52:27;7.85;;;3.97;;
75220;SDS011;63802;53.232;6.570;2022-12-20T08:54:53;6.72;;;3.72;;
75220;SDS011;63802;53.232;6.570;2022-12-20T08:57:19;10.80;;;3.90;;
75220;SDS011;63802;53.232;6.570;2022-12-20T08:59:44;9.27;;;3.90;;
75220;SDS011;63802;53.232;6.570;2022-12-20T09:02:10;9.10;;;3.63;;
75220;SDS011;63802;53.232;6.570;2022-12-20T09:04:35;6.50;;;3.30;;
75220;SDS011;63802;53.232;6.570;2022-12-20T09:07:01;6.40;;;3.63;;
75220;SDS011;63802;53.232;6.570;2022-12-20T09:09:27;7.68;;;3.60;;
75220;SDS011;63802;53.232;6.570;2022-12-20T09:11:53;5.88;;;3.50;;
75220;SDS011;63802;53.232;6.570;2022-12-20T09:14:18;10.15;;;3.78;;
75220;SDS011;63802;53.232;6.570;2022-12-20T09:16:44;9.57;;;3.22;;
75220;SDS011;63802;53.232;6.570;2022-12-20T09:19:10;7.22;;;3.20;;
75220;SDS011;63802;53.232;6.570;2022-12-20T09:21:37;5.22;;;2.80;;
75220;SDS011;63802;53.232;6.570;2022-12-20T09:24:03;5.63;;;2.75;;
75220;SDS011;63802;53.232;6.570;2022-12-20T09:26:29;6.20;;;3.60;;
75220;SDS011;63802;53.232;6.570;2022-12-20T09:28:55;5.97;;;3.03;;
75220;SDS011;63802;53.232;6.570;2022-12-20T09:31:21;7.75;;;2.95;;
75220;SDS011;63802;53.232;6.570;2022-12-20T09:33:48;6.78;;;3.33;;
75220;SDS011;63802;53.232;6.570;2022-12-20T09:36:17;8.60;;;3.40;;
75220;SDS011;63802;53.232;6.570;2022-12-20T09:38:45;11.60;;;3.08;;
75220;SDS011;63802;53.232;6.570;2022-12-20T09:41:23;5.07;;;3.15;;
75220;SDS011;63802;53.232;6.570;2022-12-20T09:43:52;7.57;;;3.35;;
75220;SDS011;63802;53.232;6.570;2022-12-20T09:46:19;4.93;;;2.85;;
75220;SDS011;63802;53.232;6.570;2022-12-20T09:48:44;7.00;;;3.10;;
75220;SDS011;63802;53.232;6.570;2022-12-20T09:59:13;5.10;;;2.67;;
75220;SDS011;63802;53.232;6.570;2022-12-20T10:01:43;5.32;;;3.03;;
75220;SDS011;63802;53.232;6.570;2022-12-20T10:04:23;7.40;;;3.10;;
75220;SDS011;63802;53.232;6.570;2022-12-20T10:15:00;7.28;;;3.05;;
75220;SDS011;63802;53.232;6.570;2022-12-20T10:20:31;8.15;;;2.90;;
75220;SDS011;63802;53.232;6.570;2022-12-20T10:25:48;5.13;;;2.70;;
75220;SDS011;63802;53.232;6.570;2022-12-20T10:28:15;4.72;;;2.78;;
75220;SDS011;63802;53.232;6.570;2022-12-20T10:30:50;4.88;;;2.70;;
75220;SDS011;63802;53.232;6.570;2022-12-20T10:33:25;7.10;;;3.45;;
75220;SDS011;63802;53.232;6.570;2022-12-20T10:35:52;7.30;;;2.72;;
75220;SDS011;63802;53.232;6.570;2022-12-20T10:38:17;6.32;;;3.17;;
75220;SDS011;63802;53.232;6.570;2022-12-20T10:40:58;7.15;;;2.78;;
75220;SDS011;63802;53.232;6.570;2022-12-20T10:43:25;6.85;;;2.85;;
75220;SDS011;63802;53.232;6.570;2022-12-20T10:46:11;8.55;;;3.15;;
75220;SDS011;63802;53.232;6.570;2022-12-20T10:48:40;9.25;;;2.90;;
75220;SDS011;63802;53.232;6.570;2022-12-20T10:56:20;8.32;;;3.88;;
75220;SDS011;63802;53.232;6.570;2022-12-20T10:58:56;7.60;;;3.40;;
75220;SDS011;63802;53.232;6.570;2022-12-20T11:01:25;7.43;;;3.03;;
75220;SDS011;63802;53.232;6.570;2022-12-20T11:04:04;6.63;;;3.17;;
75220;SDS011;63802;53.232;6.570;2022-12-20T11:06:44;6.32;;;2.97;;
75220;SDS011;63802;53.232;6.570;2022-12-20T11:09:20;8.73;;;2.97;;
75220;SDS011;63802;53.232;6.570;2022-12-20T11:11:59;7.43;;;2.92;;
75220;SDS011;63802;53.232;6.570;2022-12-20T11:14:26;5.43;;;3.08;;
75220;SDS011;63802;53.232;6.570;2022-12-20T11:16:53;6.97;;;3.10;;
75220;SDS011;63802;53.232;6.570;2022-12-20T11:24:34;7.15;;;3.20;;
75220;SDS011;63802;53.232;6.570;2022-12-20T11:27:33;6.30;;;3.22;;
75220;SDS011;63802;53.232;6.570;2022-12-20T11:30:23;9.73;;;3.53;;
75220;SDS011;63802;53.232;6.570;2022-12-20T11:35:53;8.27;;;3.63;;
75220;SDS011;63802;53.232;6.570;2022-12-20T11:38:39;8.70;;;3.50;;
75220;SDS011;63802;53.232;6.570;2022-12-20T11:41:10;7.07;;;3.03;;
75220;SDS011;63802;53.232;6.570;2022-12-20T11:52:12;6.00;;;3.08;;
75220;SDS011;63802;53.232;6.570;2022-12-20T11:55:05;7.93;;;3.45;;
75220;SDS011;63802;53.232;6.570;2022-12-20T12:00:35;4.63;;;2.88;;
75220;SDS011;63802;53.232;6.570;2022-12-20T12:03:15;6.50;;;3.55;;
75220;SDS011;63802;53.232;6.570;2022-12-20T12:05:54;7.80;;;3.58;;
75220;SDS011;63802;53.232;6.570;2022-12-20T12:08:29;6.32;;;3.92;;
75220;SDS011;63802;53.232;6.570;2022-12-20T12:11:05;9.20;;;3.80;;
75220;SDS011;63802;53.232;6.570;2022-12-20T12:13:36;8.70;;;3.78;;
75220;SDS011;63802;53.232;6.570;2022-12-20T12:16:24;6.22;;;3.50;;
75220;SDS011;63802;53.232;6.570;2022-12-20T12:18:56;8.15;;;3.67;;
75220;SDS011;63802;53.232;6.570;2022-12-20T12:21:34;7.88;;;4.18;;
75220;SDS011;63802;53.232;6.570;2022-12-20T12:27:00;10.20;;;3.92;;
75220;SDS011;63802;53.232;6.570;2022-12-20T12:29:27;10.57;;;4.13;;
75220;SDS011;63802;53.232;6.570;2022-12-20T12:31:56;9.70;;;4.45;;
75220;SDS011;63802;53.232;6.570;2022-12-20T12:42:47;9.48;;;3.70;;
75220;SDS011;63802;53.232;6.570;2022-12-20T12:45:36;7.03;;;3.95;;
75220;SDS011;63802;53.232;6.570;2022-12-20T12:48:15;9.18;;;4.32;;
75220;SDS011;63802;53.232;6.570;2022-12-20T12:50:54;8.48;;;4.47;;
75220;SDS011;63802;53.232;6.570;2022-12-20T12:53:24;8.82;;;4.32;;
75220;SDS011;63802;53.232;6.570;2022-12-20T12:55:56;8.60;;;4.32;;
75220;SDS011;63802;53.232;6.570;2022-12-20T13:00:51;8.45;;;4.47;;
75220;SDS011;63802;53.232;6.570;2022-12-20T13:08:47;9.10;;;4.10;;
75220;SDS011;63802;53.232;6.570;2022-12-20T13:11:37;7.47;;;4.35;;
75220;SDS011;63802;53.232;6.570;2022-12-20T13:14:46;8.85;;;4.63;;
75220;SDS011;63802;53.232;6.570;2022-12-20T13:16:53;7.65;;;4.35;;
75220;SDS011;63802;53.232;6.570;2022-12-20T13:19:39;10.40;;;4.45;;
75220;SDS011;63802;53.232;6.570;2022-12-20T13:22:24;11.57;;;4.50;;
75220;SDS011;63802;53.232;6.570;2022-12-20T13:25:00;9.65;;;4.95;;
75220;SDS011;63802;53.232;6.570;2022-12-20T13:27:40;8.93;;;5.03;;
75220;SDS011;63802;53.232;6.570;2022-12-20T13:40:56;11.90;;;5.10;;
75220;SDS011;63802;53.232;6.570;2022-12-20T13:43:57;10.70;;;5.25;;
75220;SDS011;63802;53.232;6.570;2022-12-20T13:46:24;10.15;;;5.63;;
75220;SDS011;63802;53.232;6.570;2022-12-20T13:48:57;10.15;;;5.47;;
75220;SDS011;63802;53.232;6.570;2022-12-20T13:51:27;10.85;;;5.90;;
75220;SDS011;63802;53.232;6.570;2022-12-20T13:53:54;13.70;;;6.07;;
75220;SDS011;63802;53.232;6.570;2022-12-20T13:58:51;12.88;;;6.20;;
75220;SDS011;63802;53.232;6.570;2022-12-20T14:01:18;9.70;;;5.60;;
75220;SDS011;63802;53.232;6.570;2022-12-20T14:03:47;12.38;;;6.35;;
75220;SDS011;63802;53.232;6.570;2022-12-20T14:06:14;11.52;;;6.15;;
75220;SDS011;63802;53.232;6.570;2022-12-20T14:08:44;10.75;;;5.95;;
75220;SDS011;63802;53.232;6.570;2022-12-20T14:11:12;13.23;;;6.05;;
75220;SDS011;63802;53.232;6.570;2022-12-20T14:13:41;12.70;;;6.32;;
75220;SDS011;63802;53.232;6.570;2022-12-20T14:16:08;13.95;;;6.78;;
75220;SDS011;63802;53.232;6.570;2022-12-20T14:18:39;12.75;;;6.75;;
75220;SDS011;63802;53.232;6.570;2022-12-20T14:21:04;12.63;;;7.28;;
75220;SDS011;63802;53.232;6.570;2022-12-20T14:23:37;14.40;;;6.70;;
75220;SDS011;63802;53.232;6.570;2022-12-20T14:26:05;11.48;;;6.45;;
75220;SDS011;63802;53.232;6.570;2022-12-20T14:28:40;15.43;;;6.95;;
75220;SDS011;63802;53.232;6.570;2022-12-20T14:34:02;13.77;;;7.38;;
75220;SDS011;63802;53.232;6.570;2022-12-20T14:36:28;14.50;;;7.43;;
75220;SDS011;63802;53.232;6.570;2022-12-20T14:38:57;13.20;;;6.97;;
75220;SDS011;63802;53.232;6.570;2022-12-20T14:41:34;16.17;;;7.70;;
75220;SDS011;63802;53.232;6.570;2022-12-20T14:46:32;20.77;;;8.40;;
75220;SDS011;63802;53.232;6.570;2022-12-20T14:52:04;17.02;;;8.35;;
75220;SDS011;63802;53.232;6.570;2022-12-20T14:54:32;16.10;;;8.50;;
75220;SDS011;63802;53.232;6.570;2022-12-20T14:57:00;17.60;;;8.82;;
75220;SDS011;63802;53.232;6.570;2022-12-20T14:59:27;16.50;;;8.68;;
75220;SDS011;63802;53.232;6.570;2022-12-20T15:01:56;16.20;;;8.63;;
75220;SDS011;63802;53.232;6.570;2022-12-20T15:06:58;20.13;;;9.85;;
75220;SDS011;63802;53.232;6.570;2022-12-20T15:09:27;17.17;;;9.38;;
75220;SDS011;63802;53.232;6.570;2022-12-20T15:11:54;17.95;;;9.50;;
75220;SDS011;63802;53.232;6.570;2022-12-20T15:14:30;16.30;;;9.45;;
75220;SDS011;63802;53.232;6.570;2022-12-20T15:19:28;17.20;;;9.85;;
75220;SDS011;63802;53.232;6.570;2022-12-20T15:21:55;21.55;;;9.38;;
75220;SDS011;63802;53.232;6.570;2022-12-20T15:24:22;21.48;;;9.48;;
75220;SDS011;63802;53.232;6.570;2022-12-20T15:26:50;20.45;;;10.55;;
75220;SDS011;63802;53.232;6.570;2022-12-20T15:29:17;20.08;;;11.02;;
75220;SDS011;63802;53.232;6.570;2022-12-20T15:31:45;22.30;;;11.63;;
75220;SDS011;63802;53.232;6.570;2022-12-20T15:34:13;25.15;;;11.35;;
75220;SDS011;63802;53.232;6.570;2022-12-20T15:36:42;18.48;;;10.30;;
75220;SDS011;63802;53.232;6.570;2022-12-20T15:39:09;22.48;;;11.20;;
75220;SDS011;63802;53.232;6.570;2022-12-20T15:41:36;21.27;;;11.15;;
75220;SDS011;63802;53.232;6.570;2022-12-20T15:46:36;21.95;;;11.10;;
75220;SDS011;63802;53.232;6.570;2022-12-20T15:49:02;20.77;;;10.75;;
75220;SDS011;63802;53.232;6.570;2022-12-20T15:51:29;20.65;;;10.95;;
75220;SDS011;63802;53.232;6.570;2022-12-20T15:54:01;24.67;;;12.10;;
75220;SDS011;63802;53.232;6.570;2022-12-20T15:56:28;24.25;;;11.82;;
75220;SDS011;63802;53.232;6.570;2022-12-20T15:58:54;27.60;;;12.02;;
75220;SDS011;63802;53.232;6.570;2022-12-20T16:01:34;24.55;;;11.95;;
75220;SDS011;63802;53.232;6.570;2022-12-20T16:04:02;27.08;;;11.75;;
75220;SDS011;63802;53.232;6.570;2022-12-20T16:06:29;26.02;;;12.55;;
75220;SDS011;63802;53.232;6.570;2022-12-20T16:08:55;27.17;;;12.90;;
75220;SDS011;63802;53.232;6.570;2022-12-20T16:11:24;23.20;;;12.35;;
75220;SDS011;63802;53.232;6.570;2022-12-20T16:13:53;23.63;;;11.93;;
75220;SDS011;63802;53.232;6.570;2022-12-20T16:16:21;25.23;;;12.50;;
75220;SDS011;63802;53.232;6.570;2022-12-20T16:18:48;26.83;;;13.67;;
75220;SDS011;63802;53.232;6.570;2022-12-20T16:21:17;25.98;;;12.30;;
75220;SDS011;63802;53.232;6.570;2022-12-20T16:23:47;26.60;;;12.50;;
75220;SDS011;63802;53.232;6.570;2022-12-20T16:26:15;30.48;;;13.88;;
75220;SDS011;63802;53.232;6.570;2022-12-20T16:28:43;26.10;;;13.18;;
75220;SDS011;63802;53.232;6.570;2022-12-20T16:31:10;30.15;;;13.00;;
75220;SDS011;63802;53.232;6.570;2022-12-20T16:33:44;29.15;;;13.80;;
75220;SDS011;63802;53.232;6.570;2022-12-20T16:36:10;30.60;;;13.90;;
75220;SDS011;63802;53.232;6.570;2022-12-20T16:38:36;29.80;;;13.85;;
75220;SDS011;63802;53.232;6.570;2022-12-20T16:41:11;31.63;;;14.15;;
75220;SDS011;63802;53.232;6.570;2022-12-20T16:43:45;29.55;;;14.82;;
75220;SDS011;63802;53.232;6.570;2022-12-20T16:46:12;30.17;;;13.55;;
75220;SDS011;63802;53.232;6.570;2022-12-20T16:48:40;30.17;;;13.77;;